Latest Coastal Weather Observations for Mallacoota

IDV60701

Issued at 4:02 am EDT Sunday 20 October 2019 (issued every 10 minutes, with the page automatically refreshed every 10 minutes)

About coastal observations | Map of coastal stations | Coastal observations for VIC | Marine services | Other Formats
Station Details ID: 084084 Name: MALLACOOTA Lat: -37.60 Lon: 149.73 Height: 22.0 m
Data from the previous 72 hours. | See also: Recent months at Mallacoota
Date/Time
EDT
Wind Sea
Height
m
Swell Vis
km
Cloud Weather Temp
°C
Press
hPa
Rain since
9am
mm
Dir  Spd
kts
Gust
kts
Height
m
Period
s
Dir
20/04:00am W 6 9 - - - - - - - 9.5 1018.5 0.0
20/03:30am WNW 5 9 - - - - - - - 9.3 1018.7 0.0
20/03:00am WNW 4 6 - - - - - - - 8.7 1018.6 0.0
20/02:30am WNW 4 7 - - - - - - - 9.2 1018.3 0.0
20/02:00am WNW 4 6 - - - - - - - 9.4 1018.7 0.0
20/01:30am WNW 5 8 - - - - - - - 10.0 1018.6 0.0
20/01:00am WNW 5 9 - - - - - - - 10.4 1018.9 0.0
20/12:30am W 6 14 - - - - - - - 11.0 1019.0 0.0
20/12:00am W 7 11 - - - - - - - 11.2 1018.8 0.0
 
Date/Time
EDT
Wind Sea
Height
m
Swell Vis
km
Cloud Weather Temp
°C
Press
hPa
Rain since
9am
mm
Dir  Spd
kts
Gust
kts
Height
m
Period
s
Dir
19/11:30pm WSW 7 12 - - - - - - - 11.5 1018.8 0.0
19/11:00pm W 8 13 - - - - - - - 11.7 1018.5 0.0
19/10:30pm WSW 6 11 - - - - - - - 11.7 1018.3 0.0
19/10:00pm WSW 6 9 - - - - - - - 11.5 1018.2 0.0
19/09:30pm W 5 9 - - - - - - - 11.4 1018.0 0.0
19/09:00pm W 4 7 - - - - - - - 10.9 1017.7 0.0
19/08:30pm W 4 6 - - - - - - - 11.5 1017.0 0.0
19/08:00pm W 5 9 - - - - - - - 12.2 1016.4 0.0
19/07:30pm W 4 11 - - - - - - - 12.4 1015.8 0.0
19/07:00pm WSW 4 7 - - - - - - - 13.2 1015.3 0.0
19/06:30pm SW 9 17 - - - - - - - 14.0 1014.9 0.0
19/06:00pm WSW 10 16 - - - - - - - 14.8 1014.6 0.0
19/05:30pm SW 9 18 - - - - - - - 14.3 1014.1 0.0
19/05:00pm SW 11 24 - - - - - - - 14.6 1013.6 0.0
19/04:30pm SW 12 21 - - - - - - - 14.1 1013.3 0.0
19/04:00pm SW 12 24 - - - - - - - 15.4 1013.2 0.0
19/03:31pm SW 15 25 - - - - - - - 14.6 1013.0 0.0
19/03:30pm SSW 14 24 - - - - - - - 14.4 1013.1 0.0
19/03:00pm SW 11 23 - - - - - - - 14.9 1013.2 0.0
19/02:30pm SW 9 17 - - - - - - - 13.4 1013.1 0.0
19/02:04pm WSW 15 28 - - - - - - - 13.7 1013.3 0.0
19/02:00pm WSW 13 28 - - - - - - - 13.8 1013.3 0.0
19/01:30pm SW 12 23 - - - - - - - 14.7 1012.9 0.0
19/01:00pm SW 13 23 - - - - - - - 14.4 1012.6 0.0
19/12:30pm SW 15 24 - - - - - - - 14.1 1012.4 0.0
19/12:04pm SW 15 26 - - - - - - - 14.4 1012.6 0.0
19/12:00pm SW 13 24 - - - - - - - 13.9 1012.5 0.0
19/11:47am SW 15 26 - - - - - - - 14.3 1012.8 0.0
19/11:30am SW 13 23 - - - - - - - 14.5 1013.0 0.0
19/11:00am SSW 14 22 - - - - - - - 14.5 1013.0 0.0
19/10:30am SW 14 23 - - - - - - - 14.2 1012.9 0.0
19/10:00am SSW 11 19 - - - - - - - 13.0 1012.6 0.0
19/09:30am SW 11 18 - - - - - - - 14.6 1012.1 0.0
19/09:00am WSW 7 11 - - - - - - - 14.6 1012.4 0.0
19/08:30am WSW 9 15 - - - - - - - 13.5 1012.2 0.0
19/08:00am WSW 7 12 - - - - - - - 13.5 1011.7 0.0
19/07:30am WSW 7 12 - - - - - - - 12.6 1011.6 0.0
19/07:00am W 4 7 - - - - - - - 10.8 1011.2 0.0
19/06:30am WNW 5 8 - - - - - - - 10.3 1011.1 0.0
19/06:00am WNW 5 6 - - - - - - - 9.9 1011.0 0.0
19/05:30am NW 4 5 - - - - - - - 9.7 1010.8 0.0
19/05:00am WNW 1 3 - - - - - - - 10.5 1010.4 0.0
19/04:30am WSW 5 10 - - - - - - - 11.9 1010.6 0.0
19/04:00am WSW 6 11 - - - - - - - 12.4 1011.1 0.0
19/03:30am WNW 3 5 - - - - - - - 11.5 1011.1 0.0
19/03:00am W 5 8 - - - - - - - 12.5 1011.2 0.0
19/02:30am SW 9 17 - - - - - - - 13.1 1011.4 0.0
19/02:00am SW 12 19 - - - - - - - 13.2 1011.2 0.0
19/01:30am WNW 5 7 - - - - - - - 11.0 1010.0 0.0
19/01:00am WNW 6 7 - - - - - - - 11.4 1009.5 0.0
19/12:30am NW 5 7 - - - - - - - 11.7 1009.1 0.0
19/12:00am NW 5 7 - - - - - - - 11.1 1009.4 0.0
 
Date/Time
EDT
Wind Sea
Height
m
Swell Vis
km
Cloud Weather Temp
°C
Press
hPa
Rain since
9am
mm
Dir  Spd
kts
Gust
kts
Height
m
Period
s
Dir
18/11:30pm NW 7 9 - - - - - - - 11.4 1009.7 0.0
18/11:00pm NW 7 9 - - - - - - - 12.0 1010.0 0.0
18/10:30pm NW 6 8 - - - - - - - 12.1 1010.4 0.0
18/10:00pm WNW 5 6 - - - - - - - 12.4 1010.9 0.0
18/09:30pm WNW 5 8 - - - - - - - 14.1 1011.4 0.0
18/09:00pm WNW 6 9 - - - - - - - 14.0 1011.1 0.0
18/08:30pm NW 6 7 - - - - - - - 14.2 1010.6 0.0
18/08:00pm NNW 4 5 - - - - - - - 14.9 1010.1 0.0
18/07:30pm NNW 5 8 - - - - - - - 16.5 1009.4 0.0
18/07:00pm N 6 8 - - - - - - - 16.8 1008.9 0.0
18/06:30pm N 8 11 - - - - - - - 18.2 1008.9 0.0
18/06:00pm NNE 5 10 - - - - - - - 16.8 1009.1 0.0
18/05:30pm ENE 8 11 - - - - - - - 17.0 1009.3 0.0
18/05:00pm NE 12 17 - - - - - - - 16.7 1009.4 0.0
18/04:30pm ENE 11 17 - - - - - - - 16.6 1009.5 0.0
18/04:00pm ENE 12 15 - - - - - - - 16.8 1010.0 0.0
18/03:30pm ENE 12 16 - - - - - - - 16.7 1010.2 0.0
18/03:00pm E 10 15 - - - - - - - 16.6 1010.6 0.0
18/02:30pm ESE 8 12 - - - - - - - 16.2 1011.5 0.0
18/02:00pm ESE 7 9 - - - - - - - 16.0 1012.1 0.0
18/01:30pm SE 7 11 - - - - - - - 15.2 1012.4 0.0
18/01:00pm S 10 13 - - - - - - - 14.4 1012.5 0.0
18/12:30pm S 9 13 - - - - - - - 14.3 1013.0 0.0
18/12:00pm S 13 16 - - - - - - - 14.5 1013.3 0.0
18/11:30am S 12 17 - - - - - - - 14.6 1013.9 0.0
18/11:00am W 6 11 - - - - - - - 16.5 1014.2 0.0
18/10:30am WSW 7 10 - - - - - - - 15.7 1014.6 0.0
18/10:00am W 7 11 - - - - - - - 15.0 1014.8 0.0
18/09:30am WSW 9 14 - - - - - - - 14.0 1015.1 0.0
18/09:00am WSW 7 14 - - - - - - - 13.5 1015.2 8.0
18/08:30am W 6 10 - - - - - - - 12.9 1015.2 8.0
18/08:00am W 7 11 - - - - - - - 12.1 1015.1 8.0
18/07:30am WSW 8 15 - - - - - - - 11.7 1015.0 8.0
18/07:00am W 6 10 - - - - - - - 11.1 1014.4 8.0
18/06:30am WSW 8 13 - - - - - - - 10.4 1013.8 8.0
18/06:00am WSW 8 17 - - - - - - - 10.2 1013.5 8.0
18/05:30am W 9 18 - - - - - - - 10.3 1013.0 8.0
18/05:00am WSW 8 14 - - - - - - - 10.2 1012.9 8.0
18/04:30am W 10 18 - - - - - - - 10.4 1012.5 8.0
18/04:00am W 7 14 - - - - - - - 10.6 1012.4 8.0
18/03:30am WSW 11 17 - - - - - - - 11.2 1012.2 8.0
18/03:00am WSW 11 21 - - - - - - - 11.4 1011.9 8.0
18/02:30am WSW 12 24 - - - - - - - 11.5 1011.5 8.0
18/02:00am WSW 11 27 - - - - - - - 11.6 1011.4 8.0
18/01:30am WSW 12 20 - - - - - - - 11.5 1011.3 8.0
18/01:00am WSW 12 25 - - - - - - - 11.5 1011.3 8.0
18/12:36am WSW 15 30 - - - - - - - 11.3 1011.2 8.0
18/12:30am WSW 13 30 - - - - - - - 11.4 1011.1 8.0
18/12:00am WSW 12 21 - - - - - - - 11.2 1011.0 8.0
 
Date/Time
EDT
Wind Sea
Height
m
Swell Vis
km
Cloud Weather Temp
°C
Press
hPa
Rain since
9am
mm
Dir  Spd
kts
Gust
kts
Height
m
Period
s
Dir
17/11:30pm WSW 11 20 - - - - - - - 11.2 1011.0 8.0
17/11:00pm WSW 12 19 - - - - - - - 11.1 1010.9 8.0
17/10:30pm WSW 10 19 - - - - - - - 11.0 1010.7 8.0
17/10:00pm W 11 22 - - - - - - - 10.6 1010.1 8.0
17/09:30pm W 10 18 - - - - - - - 10.1 1009.9 8.0
17/09:00pm W 8 13 - - - - - - Recent precip. 9.6 1009.6 8.0
17/08:30pm W 6 12 - - - - - - - 9.3 1009.5 8.0
17/08:00pm WNW 5 8 - - - - - - - 9.3 1009.3 7.6
17/07:30pm WNW 5 11 - - - - - - - 9.4 1008.9 7.6
17/07:00pm WSW 9 25 - - - - - - - 9.7 1008.3 7.6
17/06:30pm WSW 13 26 - - - - - - - 11.6 1008.3 7.0
17/06:00pm SW 9 23 - - - - - - - 13.1 1007.6 6.8
17/05:30pm SW 12 21 - - - - - - - 12.7 1007.1 6.8
17/05:00pm WSW 9 18 - - - - - - - 13.9 1006.4 6.8
17/04:30pm WNW 5 7 - - - - - - - 12.8 1006.3 6.8
17/04:00pm W 5 8 - - - - - - - 10.3 1006.5 6.8
17/03:30pm W 10 17 - - - - - - - 9.8 1006.5 6.8
17/03:16pm WSW 15 27 - - - - - - - 12.0 1006.8 5.8
17/03:00pm SW 14 21 - - - - - - - 13.9 1005.7 5.6
17/02:30pm SW 12 19 - - - - - - - 14.6 1005.2 5.6
17/02:23pm SW 15 25 - - - - - - - 14.6 1005.2 5.6
17/02:00pm SW 12 26 - - - - - - - 14.1 1005.2 5.6
17/01:30pm SW 9 16 - - - - - - - 11.1 1005.5 5.6
17/01:00pm SW 10 16 - - - - - - - 11.5 1005.7 5.6
17/12:30pm SW 17 29 - - - - - - - 10.5 1005.0 4.6
17/12:00pm SSW 15 26 - - - - - - - 11.4 1005.7 4.6
17/11:55am SSW 13 26 - - - - - - - 12.2 1005.8 4.6
17/11:51am SSW 10 26 - - - - - - - 13.4 1005.4 4.6
17/11:30am SW 6 12 - - - - - - - 13.6 1005.3 4.6
17/11:00am ESE 1 4 - - - - - - - 12.2 1005.0 4.6
17/10:30am SW 10 17 - - - - - - - 12.2 1005.6 1.8
17/10:00am SW 6 10 - - - - - - - 13.2 1004.9 0.0
17/09:30am NW 6 8 - - - - - - - 13.5 1005.0 0.0
17/09:00am NNW 5 7 - - - - - - - 13.3 1005.0 1.2
17/08:30am NW 5 7 - - - - - - - 13.1 1005.1 1.2
17/08:00am NW 6 8 - - - - - - - 12.1 1005.2 1.2
17/07:30am NW 6 9 - - - - - - - 10.8 1005.5 1.2
17/07:00am WNW 6 8 - - - - - - - 9.7 1005.6 1.0
17/06:30am NNW 3 5 - - - - - - - 9.3 1005.7 1.0
17/06:00am WNW 6 8 - - - - - - - 9.5 1006.1 1.0
17/05:30am WNW 6 8 - - - - - - - 9.6 1006.3 1.0
17/05:00am NW 6 8 - - - - - - - 9.9 1006.3 1.0
17/04:30am NW 6 7 - - - - - - - 10.2 1006.3 1.0

Other formats

Comma delimited format used in spreadsheet applications
http://www.bom.gov.au/fwo/IDV60701/IDV60701.94935.axf

JavaScript Object Notation format (JSON) in row-major order
http://www.bom.gov.au/fwo/IDV60701/IDV60701.94935.json

Data quality

Most of these data are generated automatically and are frequently updated. Quality checks on data are not normally performed. It is possible for incorrect values to appear. Refer to information at About Latest Weather Observations and please check the disclaimer before using these data.